createdAt,value
2018-06-05T00:01:44.070Z,15.60
2018-06-05T00:04:11.802Z,15.43
2018-06-05T00:06:39.539Z,16.70
2018-06-05T00:09:07.501Z,15.77
2018-06-05T00:11:35.307Z,14.47
2018-06-05T00:14:03.081Z,13.80
2018-06-05T00:16:30.770Z,16.40
2018-06-05T00:18:58.546Z,14.77
2018-06-05T00:21:26.356Z,15.67
2018-06-05T00:23:54.012Z,14.00
2018-06-05T00:26:21.767Z,14.20
2018-06-05T00:28:49.473Z,15.37
2018-06-05T00:31:17.198Z,13.60
2018-06-05T00:33:44.908Z,14.97
2018-06-05T00:36:12.513Z,15.03
2018-06-05T00:38:40.294Z,15.27
2018-06-05T00:41:08.022Z,15.00
2018-06-05T00:43:35.706Z,15.13
2018-06-05T00:46:03.475Z,15.93
2018-06-05T00:48:31.189Z,15.43
2018-06-05T00:50:58.925Z,15.50
2018-06-05T00:53:26.771Z,16.60
2018-06-05T00:55:54.481Z,16.27
2018-06-05T00:58:22.166Z,15.40
2018-06-05T01:00:49.898Z,17.67
2018-06-05T01:03:17.460Z,16.67
2018-06-05T01:05:45.205Z,16.63
2018-06-05T01:08:12.930Z,15.30
2018-06-05T01:10:40.738Z,17.67
2018-06-05T01:13:08.426Z,16.53
2018-06-05T01:15:36.197Z,16.03
2018-06-05T01:18:03.975Z,16.47
2018-06-05T01:20:31.761Z,17.10
2018-06-05T01:22:59.441Z,16.23
2018-06-05T01:25:27.082Z,16.00
2018-06-05T01:27:54.812Z,14.87
2018-06-05T01:30:22.497Z,17.47
2018-06-05T01:32:50.208Z,16.83
2018-06-05T01:35:17.924Z,17.17
2018-06-05T01:37:45.668Z,16.30
2018-06-05T01:40:13.422Z,18.27
2018-06-05T01:42:41.147Z,18.23
2018-06-05T01:45:08.850Z,15.40
2018-06-05T01:47:36.759Z,16.70
2018-06-05T01:50:04.612Z,17.10
2018-06-05T01:52:32.301Z,17.00
2018-06-05T01:55:00.034Z,16.10
2018-06-05T01:57:27.733Z,16.73
2018-06-05T01:59:55.414Z,18.47
2018-06-05T02:02:23.149Z,17.50
2018-06-05T02:04:50.888Z,15.87
2018-06-05T02:07:18.622Z,16.00
2018-06-05T02:09:46.278Z,16.13
2018-06-05T02:12:13.966Z,16.70
2018-06-05T02:14:41.642Z,17.10
2018-06-05T02:17:09.430Z,17.57
2018-06-05T02:19:37.185Z,17.63
2018-06-05T02:22:04.989Z,16.60
2018-06-05T02:24:32.655Z,15.10
2018-06-05T02:27:00.209Z,17.57
2018-06-05T02:29:27.869Z,16.30
2018-06-05T02:31:55.566Z,16.50
2018-06-05T02:34:23.244Z,16.73
2018-06-05T02:36:50.964Z,15.47
2018-06-05T02:39:18.655Z,15.50
2018-06-05T02:41:46.334Z,16.30
2018-06-05T02:44:14.078Z,15.57
2018-06-05T02:46:41.945Z,17.00
2018-06-05T02:49:09.626Z,16.30
2018-06-05T02:51:37.351Z,16.13
2018-06-05T02:54:05.121Z,15.87
2018-06-05T02:56:32.833Z,16.43
2018-06-05T02:59:00.626Z,18.23
2018-06-05T03:01:28.346Z,16.87
2018-06-05T03:03:56.198Z,17.47
2018-06-05T03:06:23.927Z,17.37
2018-06-05T03:08:51.657Z,18.67
2018-06-05T03:11:19.359Z,17.80
2018-06-05T03:13:47.035Z,17.80
2018-06-05T03:16:14.747Z,18.00
2018-06-05T03:18:42.497Z,20.00
2018-06-05T03:21:10.214Z,18.20
2018-06-05T03:23:37.955Z,17.50
2018-06-05T03:26:05.674Z,18.17
2018-06-05T03:28:33.409Z,24.00
2018-06-05T03:31:01.106Z,17.90
2018-06-05T03:33:28.854Z,18.13
2018-06-05T03:35:56.682Z,18.10
2018-06-05T03:38:24.479Z,20.03
2018-06-05T03:40:52.185Z,17.77
2018-06-05T03:43:20.077Z,19.40
2018-06-05T03:45:47.796Z,17.97
2018-06-05T03:48:15.505Z,19.67
2018-06-05T03:50:43.162Z,18.00
2018-06-05T03:53:10.757Z,18.03
2018-06-05T03:55:38.492Z,18.23
2018-06-05T03:58:06.213Z,16.53
2018-06-05T04:00:33.939Z,17.93
2018-06-05T04:03:01.627Z,17.53
2018-06-05T04:05:29.397Z,16.70
2018-06-05T04:07:57.072Z,20.20
2018-06-05T04:10:24.863Z,15.77
2018-06-05T04:12:52.617Z,17.07
2018-06-05T04:15:20.628Z,16.13
2018-06-05T04:17:48.378Z,16.90
2018-06-05T04:20:16.096Z,16.23
2018-06-05T04:22:43.790Z,16.87
2018-06-05T04:25:11.537Z,15.20
2018-06-05T04:27:39.258Z,16.03
2018-06-05T04:30:06.966Z,15.40
2018-06-05T04:32:34.810Z,16.17
2018-06-05T04:35:02.532Z,16.00
2018-06-05T04:37:30.387Z,15.97
2018-06-05T04:39:58.071Z,16.07
2018-06-05T04:42:25.824Z,16.40
2018-06-05T04:44:53.509Z,17.80
2018-06-05T04:47:21.311Z,15.90
2018-06-05T04:49:49.036Z,16.30
2018-06-05T04:52:16.781Z,16.33
2018-06-05T04:54:44.454Z,16.63
2018-06-05T04:57:12.171Z,15.50
2018-06-05T04:59:39.890Z,16.23
2018-06-05T05:02:07.592Z,17.10
2018-06-05T05:04:35.304Z,16.57
2018-06-05T05:07:03.025Z,16.63
2018-06-05T05:09:30.773Z,18.00
2018-06-05T05:11:58.486Z,16.37
2018-06-05T05:14:28.261Z,17.37
2018-06-05T05:16:55.997Z,18.60
2018-06-05T05:19:23.722Z,17.10
2018-06-05T05:21:59.495Z,15.60
2018-06-05T05:24:27.302Z,17.87
2018-06-05T05:26:55.015Z,16.20
2018-06-05T05:29:22.950Z,16.70
2018-06-05T05:31:50.695Z,15.90
2018-06-05T05:34:18.459Z,16.97
2018-06-05T05:36:46.234Z,16.53
2018-06-05T05:39:14.009Z,17.00
2018-06-05T05:41:41.830Z,18.70
2018-06-05T05:44:09.542Z,17.27
2018-06-05T05:46:37.509Z,17.03
2018-06-05T05:49:05.170Z,15.40
2018-06-05T05:51:32.938Z,14.60
2018-06-05T05:54:00.610Z,13.97
2018-06-05T05:56:28.415Z,14.20
2018-06-05T05:58:56.181Z,14.47
2018-06-05T06:01:23.952Z,14.13
2018-06-05T06:03:51.690Z,13.60
2018-06-05T06:06:19.539Z,13.03
2018-06-05T06:08:47.337Z,13.53
2018-06-05T06:11:15.161Z,13.30
2018-06-05T06:13:42.872Z,13.60
2018-06-05T06:16:10.625Z,15.00
2018-06-05T06:18:38.334Z,15.00
2018-06-05T06:21:06.081Z,15.47
2018-06-05T06:23:33.808Z,13.33
2018-06-05T06:26:01.604Z,14.30
2018-06-05T06:28:29.258Z,14.30
2018-06-05T06:30:56.942Z,13.60
2018-06-05T06:33:24.736Z,14.17
2018-06-05T06:35:52.475Z,13.20
2018-06-05T06:38:21.862Z,13.17
2018-06-05T06:40:49.445Z,13.80
2018-06-05T06:43:17.137Z,13.23
2018-06-05T06:45:44.824Z,13.77
2018-06-05T06:48:12.560Z,11.90
2018-06-05T06:50:40.223Z,13.00
2018-06-05T06:53:08.101Z,14.07
2018-06-05T06:55:35.832Z,11.33
2018-06-05T06:58:03.541Z,13.30
2018-06-05T07:00:31.274Z,14.47
2018-06-05T07:02:59.129Z,13.37
2018-06-05T07:05:26.950Z,13.80
2018-06-05T07:07:54.669Z,13.20
2018-06-05T07:10:22.386Z,12.60
2018-06-05T07:12:50.109Z,12.10
2018-06-05T07:15:17.926Z,12.80
2018-06-05T07:17:45.669Z,11.27
2018-06-05T07:20:13.442Z,11.40
2018-06-05T07:22:41.154Z,10.50
2018-06-05T07:25:08.919Z,12.03
2018-06-05T07:27:36.570Z,12.37
2018-06-05T07:30:04.796Z,11.20
2018-06-05T07:32:32.461Z,11.33
2018-06-05T07:35:00.205Z,10.63
2018-06-05T07:37:28.077Z,11.87
2018-06-05T07:39:56.173Z,11.37
2018-06-05T07:42:23.916Z,10.07
2018-06-05T07:44:51.665Z,10.47
2018-06-05T07:47:19.360Z,10.17
2018-06-05T07:49:47.082Z,10.87
2018-06-05T07:52:14.785Z,10.53
2018-06-05T07:54:42.465Z,10.47
2018-06-05T07:57:10.044Z,9.93
2018-06-05T07:59:37.717Z,10.43
2018-06-05T08:02:05.537Z,10.27
2018-06-05T08:04:33.237Z,9.03
2018-06-05T08:07:01.151Z,9.67
2018-06-05T08:09:28.790Z,8.87
2018-06-05T08:11:56.545Z,9.57
2018-06-05T08:14:24.250Z,8.70
2018-06-05T08:16:52.036Z,8.67
2018-06-05T08:19:19.807Z,8.43
2018-06-05T08:21:47.502Z,8.60
2018-06-05T08:24:15.269Z,8.37
2018-06-05T08:26:49.728Z,7.23
2018-06-05T08:29:18.317Z,8.40
2018-06-05T08:31:46.382Z,9.43
2018-06-05T08:34:14.377Z,8.10
2018-06-05T08:36:42.094Z,7.40
2018-06-05T08:39:10.111Z,8.20
2018-06-05T08:41:37.829Z,6.60
2018-06-05T08:44:05.790Z,7.80
2018-06-05T08:46:33.520Z,8.63
2018-06-05T08:49:01.438Z,8.97
2018-06-05T08:51:29.297Z,8.40
2018-06-05T08:53:57.172Z,8.20
2018-06-05T08:56:24.923Z,8.70
2018-06-05T08:59:05.688Z,8.37
2018-06-05T09:01:34.128Z,10.00
2018-06-05T09:04:02.631Z,8.40
2018-06-05T09:06:31.198Z,9.30
2018-06-05T09:09:19.347Z,9.20
2018-06-05T09:11:54.159Z,8.10
2018-06-05T09:14:22.631Z,8.33
2018-06-05T09:19:44.169Z,8.27
2018-06-05T09:22:12.523Z,9.10
2018-06-05T09:24:40.904Z,8.73
2018-06-05T09:27:09.355Z,8.67
2018-06-05T09:29:37.801Z,9.30
2018-06-05T09:32:06.266Z,9.47
2018-06-05T09:34:34.292Z,8.90
2018-06-05T09:37:02.986Z,9.40
2018-06-05T09:39:31.227Z,11.10
2018-06-05T09:41:59.638Z,11.10
2018-06-05T09:44:27.962Z,11.67
2018-06-05T09:46:55.835Z,12.07
2018-06-05T09:49:24.229Z,10.73
2018-06-05T09:51:52.623Z,10.47
2018-06-05T09:54:21.293Z,10.40
2018-06-05T09:56:49.683Z,10.97
2018-06-05T09:59:18.176Z,10.53
2018-06-05T10:01:46.563Z,10.07
2018-06-05T10:04:14.987Z,10.30
2018-06-05T10:06:43.372Z,10.37
2018-06-05T10:09:13.152Z,9.97
2018-06-05T10:11:41.596Z,9.33
2018-06-05T10:14:10.170Z,9.30
2018-06-05T10:16:38.671Z,9.70
2018-06-05T10:19:07.173Z,9.17
2018-06-05T10:21:35.580Z,10.17
2018-06-05T10:24:03.992Z,11.07
2018-06-05T10:26:32.566Z,9.80
2018-06-05T10:29:01.112Z,10.27
2018-06-05T10:31:29.761Z,10.10
2018-06-05T10:33:58.193Z,10.23
2018-06-05T10:36:26.562Z,10.50
2018-06-05T10:38:54.949Z,10.63
2018-06-05T10:41:23.415Z,10.50
2018-06-05T10:43:51.854Z,10.57
2018-06-05T10:46:20.235Z,9.10
2018-06-05T10:48:48.712Z,8.97
2018-06-05T10:51:16.494Z,9.10
2018-06-05T10:53:44.317Z,9.97
2018-06-05T10:56:12.030Z,8.87
2018-06-05T10:58:39.781Z,8.20
2018-06-05T11:01:07.508Z,9.43
2018-06-05T11:03:35.314Z,8.50
2018-06-05T11:06:03.170Z,9.40
2018-06-05T11:08:31.462Z,8.50
2018-06-05T11:10:59.170Z,8.30
2018-06-05T11:13:26.934Z,9.00
2018-06-05T11:15:54.645Z,9.00
2018-06-05T11:18:22.382Z,9.33
2018-06-05T11:20:50.059Z,8.40
2018-06-05T11:23:17.794Z,9.13
2018-06-05T11:25:45.669Z,9.40
2018-06-05T11:28:13.364Z,8.60
2018-06-05T11:30:41.134Z,11.20
2018-06-05T11:33:08.983Z,11.30
2018-06-05T11:35:36.759Z,9.77
2018-06-05T11:38:04.789Z,10.57
2018-06-05T11:40:32.469Z,9.77
2018-06-05T11:43:00.281Z,10.63
2018-06-05T11:45:28.336Z,9.40
2018-06-05T11:47:56.111Z,10.33
2018-06-05T11:50:23.844Z,9.10
2018-06-05T11:52:51.584Z,10.00
2018-06-05T11:55:19.465Z,9.40
2018-06-05T11:57:47.465Z,10.00
2018-06-05T12:00:15.305Z,9.40
2018-06-05T12:02:43.303Z,10.83
2018-06-05T12:05:11.185Z,10.80
2018-06-05T12:07:39.203Z,9.27
2018-06-05T12:10:07.161Z,9.00
2018-06-05T12:12:34.886Z,8.43
2018-06-05T12:15:02.739Z,8.33
2018-06-05T12:17:31.360Z,9.00
2018-06-05T12:19:59.070Z,8.37
2018-06-05T12:22:26.846Z,6.90
2018-06-05T12:24:54.724Z,8.27
2018-06-05T12:27:22.503Z,8.47
2018-06-05T12:29:50.418Z,6.80
2018-06-05T12:32:18.432Z,6.67
2018-06-05T12:34:46.151Z,7.20
2018-06-05T12:37:14.007Z,7.63
2018-06-05T12:39:41.849Z,7.80
2018-06-05T12:42:09.609Z,7.20
2018-06-05T12:44:37.236Z,6.77
2018-06-05T12:47:04.967Z,7.07
2018-06-05T12:49:32.816Z,6.93
2018-06-05T12:52:00.656Z,6.80
2018-06-05T12:54:28.481Z,8.80
2018-06-05T12:56:56.225Z,7.90
2018-06-05T12:59:23.990Z,8.10
2018-06-05T13:01:51.720Z,9.70
2018-06-05T13:04:19.500Z,7.93
2018-06-05T13:06:47.205Z,9.20
2018-06-05T13:09:14.969Z,8.33
2018-06-05T13:11:43.096Z,7.97
2018-06-05T13:14:10.898Z,8.40
2018-06-05T13:16:38.762Z,9.33
2018-06-05T13:19:06.517Z,8.80
2018-06-05T13:21:34.327Z,8.73
2018-06-05T13:24:02.092Z,9.03
2018-06-05T13:26:29.858Z,8.17
2018-06-05T13:29:06.581Z,8.50
2018-06-05T13:31:35.462Z,8.40
2018-06-05T13:34:04.180Z,7.77
2018-06-05T13:36:32.027Z,8.33
2018-06-05T13:38:59.982Z,8.57
2018-06-05T13:41:27.683Z,7.37
2018-06-05T13:43:55.448Z,8.43
2018-06-05T13:46:23.385Z,8.57
2018-06-05T13:48:51.172Z,8.30
2018-06-05T13:51:19.170Z,8.17
2018-06-05T13:53:46.833Z,8.43
2018-06-05T13:56:14.610Z,8.73
2018-06-05T13:58:42.637Z,8.53
2018-06-05T14:01:10.460Z,8.20
2018-06-05T14:03:38.234Z,8.50
2018-06-05T14:06:05.992Z,7.87
2018-06-05T14:08:33.734Z,7.67
2018-06-05T14:11:01.459Z,8.40
2018-06-05T14:13:29.260Z,8.57
2018-06-05T14:15:56.976Z,9.17
2018-06-05T14:18:24.742Z,8.40
2018-06-05T14:20:52.618Z,8.60
2018-06-05T14:23:20.389Z,9.27
2018-06-05T14:25:49.861Z,8.73
2018-06-05T14:28:19.212Z,8.93
2018-06-05T14:30:46.831Z,8.53
2018-06-05T14:33:14.607Z,8.03
2018-06-05T14:35:44.761Z,7.43
2018-06-05T14:38:12.591Z,8.30
2018-06-05T14:40:40.414Z,7.90
2018-06-05T14:43:08.223Z,8.63
2018-06-05T14:45:36.138Z,8.90
2018-06-05T14:48:03.893Z,8.77
2018-06-05T14:50:31.553Z,7.93
2018-06-05T14:52:59.313Z,8.97
2018-06-05T14:55:27.553Z,9.33
2018-06-05T14:57:55.405Z,9.43
2018-06-05T15:00:23.146Z,8.20
2018-06-05T15:02:50.929Z,8.20
2018-06-05T15:05:18.929Z,9.60
2018-06-05T15:07:46.661Z,8.73
2018-06-05T15:10:14.438Z,8.97
2018-06-05T15:12:42.251Z,8.33
2018-06-05T15:15:11.401Z,9.00
2018-06-05T15:17:39.128Z,8.73
2018-06-05T15:20:06.921Z,9.67
2018-06-05T15:22:34.747Z,9.00
2018-06-05T15:25:02.403Z,9.40
2018-06-05T15:27:30.213Z,9.10
2018-06-05T15:29:58.002Z,9.57
2018-06-05T15:32:25.910Z,9.40
2018-06-05T15:34:53.694Z,9.90
2018-06-05T15:37:21.521Z,9.63
2018-06-05T15:39:49.247Z,9.70
2018-06-05T15:42:17.090Z,9.40
2018-06-05T15:44:44.865Z,9.63
2018-06-05T15:47:12.614Z,9.80
2018-06-05T15:49:40.525Z,9.73
2018-06-05T15:52:12.562Z,9.60
2018-06-05T15:54:40.392Z,10.00
2018-06-05T15:57:08.294Z,10.50
2018-06-05T15:59:36.146Z,9.70
2018-06-05T16:02:03.968Z,10.20
2018-06-05T16:04:31.984Z,9.67
2018-06-05T16:07:00.149Z,10.70
2018-06-05T16:09:28.089Z,9.73
2018-06-05T16:11:56.928Z,9.73
2018-06-05T16:14:24.650Z,9.70
2018-06-05T16:29:52.012Z,9.80
2018-06-05T16:32:20.004Z,11.00
2018-06-05T16:34:47.717Z,10.00
2018-06-05T16:50:15.118Z,10.77
2018-06-05T16:52:43.070Z,10.93
2018-06-05T16:55:10.964Z,10.83
2018-06-05T16:57:38.810Z,10.60
2018-06-05T17:00:06.575Z,10.67
2018-06-05T17:02:34.378Z,11.33
2018-06-05T17:05:02.135Z,10.47
2018-06-05T17:07:30.060Z,10.47
2018-06-05T17:09:57.904Z,11.30
2018-06-05T17:12:25.658Z,10.83
2018-06-05T17:14:53.386Z,10.43
2018-06-05T17:17:21.134Z,10.80
2018-06-05T17:19:48.922Z,11.10
2018-06-05T17:22:16.746Z,10.47
2018-06-05T17:24:44.783Z,11.90
2018-06-05T17:27:13.025Z,10.60
2018-06-05T17:29:44.469Z,10.23
2018-06-05T17:32:12.297Z,10.90
2018-06-05T17:34:40.101Z,10.90
2018-06-05T17:37:07.926Z,11.00
2018-06-05T17:39:35.653Z,11.50
2018-06-05T17:42:03.543Z,11.53
2018-06-05T17:44:31.258Z,10.37
2018-06-05T17:46:59.118Z,10.73
2018-06-05T17:49:26.913Z,11.27
2018-06-05T17:51:54.720Z,11.40
2018-06-05T17:54:22.458Z,10.53
2018-06-05T17:56:50.372Z,10.60
2018-06-05T17:59:18.255Z,11.50
2018-06-05T18:01:47.985Z,11.27
2018-06-05T18:04:16.441Z,11.20
2018-06-05T18:06:44.297Z,11.40
2018-06-05T18:09:12.138Z,11.77
2018-06-05T18:11:39.954Z,11.10
2018-06-05T18:14:07.731Z,11.23
2018-06-05T18:16:35.541Z,10.20
2018-06-05T18:19:03.522Z,10.83
2018-06-05T18:21:31.313Z,10.63
2018-06-05T18:23:59.080Z,11.73
2018-06-05T18:26:26.926Z,10.30
2018-06-05T18:28:54.621Z,10.73
2018-06-05T18:31:22.482Z,10.57
2018-06-05T18:33:50.284Z,11.23
2018-06-05T18:36:18.115Z,11.27
2018-06-05T18:38:47.332Z,15.03
2018-06-05T18:41:15.385Z,10.23
2018-06-05T18:43:43.095Z,11.47
2018-06-05T18:46:10.911Z,11.60
2018-06-05T18:48:38.843Z,11.43
2018-06-05T18:51:06.728Z,10.40
2018-06-05T18:53:34.445Z,11.40
2018-06-05T18:56:02.274Z,11.20
2018-06-05T18:58:30.026Z,10.37
2018-06-05T19:00:57.843Z,11.47
2018-06-05T19:03:25.617Z,11.23
2018-06-05T19:05:53.386Z,12.07
2018-06-05T19:08:21.398Z,10.87
2018-06-05T19:10:52.725Z,10.90
2018-06-05T19:13:20.536Z,11.10
2018-06-05T19:15:48.598Z,12.60
2018-06-05T19:18:16.527Z,11.37
2018-06-05T19:20:44.348Z,11.03
2018-06-05T19:23:13.805Z,11.57
2018-06-05T19:25:41.815Z,13.03
2018-06-05T19:28:10.013Z,12.13
2018-06-05T19:30:42.151Z,11.60
2018-06-05T19:33:09.907Z,11.77
2018-06-05T19:35:37.757Z,13.50
2018-06-05T19:38:14.543Z,12.80
2018-06-05T19:40:42.564Z,15.03
2018-06-05T19:43:10.342Z,13.93
2018-06-05T19:45:38.551Z,15.33
2018-06-05T19:48:06.485Z,14.07
2018-06-05T19:50:34.281Z,13.63
2018-06-05T19:53:02.024Z,14.43
2018-06-05T19:55:29.816Z,13.90
2018-06-05T19:57:57.829Z,14.07
2018-06-05T20:00:25.718Z,13.00
2018-06-05T20:02:53.702Z,14.80
2018-06-05T20:05:21.610Z,15.03
2018-06-05T20:07:49.371Z,16.37
2018-06-05T20:10:17.083Z,18.23
2018-06-05T20:12:44.878Z,16.47
2018-06-05T20:15:12.793Z,16.10
2018-06-05T20:17:40.563Z,15.43
2018-06-05T20:20:08.328Z,15.40
2018-06-05T20:22:36.095Z,16.40
2018-06-05T20:25:03.935Z,15.60
2018-06-05T20:27:31.881Z,17.33
2018-06-05T20:29:59.618Z,16.03
2018-06-05T20:32:27.454Z,15.07
2018-06-05T20:34:55.199Z,15.70
2018-06-05T20:37:23.145Z,16.77
2018-06-05T20:39:50.882Z,15.63
2018-06-05T20:42:18.636Z,16.37
2018-06-05T20:44:46.264Z,14.00
2018-06-05T20:47:13.934Z,13.77
2018-06-05T20:49:41.840Z,14.17
2018-06-05T20:52:10.600Z,16.70
2018-06-05T20:54:38.671Z,16.30
2018-06-05T20:57:06.555Z,17.33
2018-06-05T20:59:34.362Z,17.13
2018-06-05T21:02:02.279Z,16.50
2018-06-05T21:04:30.199Z,17.07
2018-06-05T21:07:03.795Z,17.37
2018-06-05T21:09:31.643Z,16.80
2018-06-05T21:11:59.489Z,16.50
2018-06-05T21:14:29.081Z,17.23
2018-06-05T21:16:57.056Z,17.03
2018-06-05T21:19:24.822Z,17.57
2018-06-05T21:21:52.719Z,17.13
2018-06-05T21:24:20.527Z,17.60
2018-06-05T21:26:48.451Z,16.93
2018-06-05T21:29:16.185Z,16.10
2018-06-05T21:31:43.958Z,16.73
2018-06-05T21:34:11.725Z,16.60
2018-06-05T21:36:39.526Z,17.30
2018-06-05T21:39:08.985Z,16.83
2018-06-05T21:41:36.888Z,17.03
2018-06-05T21:44:04.877Z,18.17
2018-06-05T21:46:32.856Z,17.67
2018-06-05T21:49:01.569Z,16.50
2018-06-05T21:51:35.019Z,20.10
2018-06-05T21:54:05.792Z,17.33
2018-06-05T21:56:33.621Z,17.50
2018-06-05T21:59:01.473Z,18.67
2018-06-05T22:01:29.233Z,18.47
2018-06-05T22:03:57.040Z,18.10
2018-06-05T22:06:24.889Z,17.43
2018-06-05T22:08:52.746Z,17.83
2018-06-05T22:11:20.603Z,16.90
2018-06-05T22:13:49.066Z,18.43
2018-06-05T22:16:16.862Z,16.43
2018-06-05T22:18:44.673Z,17.87
2018-06-05T22:21:12.413Z,19.13
2018-06-05T22:23:40.308Z,18.90
2018-06-05T22:26:08.125Z,18.67
2018-06-05T22:28:36.032Z,17.60
2018-06-05T22:31:03.985Z,18.37
2018-06-05T22:33:31.686Z,20.23
2018-06-05T22:35:59.438Z,16.60
2018-06-05T22:38:27.209Z,16.77
2018-06-05T22:40:54.969Z,17.73
2018-06-05T22:43:22.797Z,17.53
2018-06-05T22:45:50.551Z,17.07
2018-06-05T22:48:18.357Z,17.30
2018-06-05T22:50:46.349Z,18.83
2018-06-05T22:53:14.754Z,16.90
2018-06-05T22:55:42.693Z,18.37
2018-06-05T22:58:10.535Z,16.10
2018-06-05T23:00:38.462Z,16.00
2018-06-05T23:03:06.231Z,15.37
2018-06-05T23:05:34.186Z,15.97
2018-06-05T23:08:01.926Z,18.43
2018-06-05T23:10:29.680Z,18.03
2018-06-05T23:12:57.389Z,15.40
2018-06-05T23:15:25.147Z,15.90
2018-06-05T23:17:52.877Z,16.73
2018-06-05T23:20:20.663Z,15.83
2018-06-05T23:22:48.401Z,16.37
2018-06-05T23:25:16.160Z,15.63
2018-06-05T23:27:43.860Z,15.17
2018-06-05T23:30:11.581Z,15.50
2018-06-05T23:32:39.399Z,17.17
2018-06-05T23:35:07.091Z,19.97
2018-06-05T23:37:34.850Z,17.77
2018-06-05T23:40:02.659Z,16.57
2018-06-05T23:42:30.470Z,16.27
2018-06-05T23:44:58.210Z,16.90
2018-06-05T23:47:26.000Z,18.40
2018-06-05T23:49:53.731Z,15.40
2018-06-05T23:52:21.498Z,18.70
2018-06-05T23:54:49.228Z,20.63
2018-06-05T23:57:16.951Z,17.30
2018-06-05T23:59:44.679Z,18.03
